Time;durP1;ratioP1;P1;durP2;ratioP2;P2;SDS_P1;SDS_P2;PMS_P1;PMS_P2;Temp;Humidity;BMP_temperature;BMP_pressure;BME280_temperature;BME280_humidity;BME280_pressure;Samples;Min_cycle;Max_cycle;Signal;HPM_P1;HPM_P2
2023/09/26 00:00:31;;;;;;;;;;;21.50;61.10;;;;;;5043622;27;87161;-64
2023/09/26 00:02:57;;;;;;;;;;;21.50;61.10;;;;;;5043677;28;87600;-62
2023/09/26 00:05:23;;;;;;;;;;;21.50;61.10;;;;;;5046558;27;88023;-62
2023/09/26 00:07:49;;;;;;;;;;;21.50;61.00;;;;;;5043900;28;87940;-62
2023/09/26 00:10:15;;;;;;;;;;;21.50;60.90;;;;;;5043377;27;87419;-61
2023/09/26 00:12:41;;;;;;;;;;;21.40;60.80;;;;;;5044001;27;86470;-62
2023/09/26 00:15:07;;;;;;;;;;;21.40;60.80;;;;;;5043994;28;87034;-65
2023/09/26 00:17:32;;;;;;;;;;;21.40;60.70;;;;;;5043806;27;88053;-62
2023/09/26 00:19:58;;;;;;;;;;;21.40;60.70;;;;;;5043064;27;88157;-62
2023/09/26 00:22:24;;;;;;;;;;;21.40;60.60;;;;;;5043678;27;88575;-63
2023/09/26 00:24:51;;;;;;;;;;;21.40;60.60;;;;;;5043370;28;88253;-62
2023/09/26 00:27:17;;;;;;;;;;;21.40;60.70;;;;;;5046504;28;87139;-61
2023/09/26 00:29:44;;;;;;;;;;;21.40;60.70;;;;;;5042986;27;88240;-63
2023/09/26 00:32:10;;;;;;;;;;;21.40;60.70;;;;;;5043013;27;87440;-62
2023/09/26 00:34:35;;;;;;;;;;;21.40;60.70;;;;;;5043589;27;87879;-61
2023/09/26 00:37:01;;;;;;;;;;;21.30;60.70;;;;;;5043863;28;87688;-62
2023/09/26 00:39:27;;;;;;;;;;;21.30;60.70;;;;;;5043424;28;87093;-62
2023/09/26 00:41:53;;;;;;;;;;;21.30;60.70;;;;;;5043385;28;87568;-62
2023/09/26 00:44:18;;;;;;;;;;;21.30;60.70;;;;;;5041144;27;89154;-63
2023/09/26 00:46:45;;;;;;;;;;;21.30;60.80;;;;;;5042933;28;87267;-63
2023/09/26 00:49:11;;;;;;;;;;;21.30;60.90;;;;;;5045697;27;87354;-62
2023/09/26 00:51:37;;;;;;;;;;;21.30;60.90;;;;;;5043140;27;87165;-64
2023/09/26 00:54:03;;;;;;;;;;;21.30;60.90;;;;;;5043388;27;87670;-63
2023/09/26 00:56:29;;;;;;;;;;;21.30;60.90;;;;;;5043194;27;87356;-63
2023/09/26 00:58:55;;;;;;;;;;;21.30;60.90;;;;;;5042917;27;87251;-62
2023/09/26 01:01:24;;;;;;;;;;;21.30;60.90;;;;;;5042765;27;86615;-62
2023/09/26 01:03:50;;;;;;;;;;;21.30;61.00;;;;;;5042766;27;88231;-63
2023/09/26 01:06:15;;;;;;;;;;;21.30;61.10;;;;;;5043231;28;87614;-64
2023/09/26 01:08:41;;;;;;;;;;;21.30;61.10;;;;;;5042358;28;87941;-62
2023/09/26 01:11:08;;;;;;;;;;;21.30;61.10;;;;;;5045393;28;87985;-63
2023/09/26 01:13:33;;;;;;;;;;;21.30;61.10;;;;;;5042630;27;87637;-63
2023/09/26 01:16:12;;;;;;;;;;;21.20;61.10;;;;;;5041806;28;88105;-63
2023/09/26 01:18:37;;;;;;;;;;;21.20;61.10;;;;;;5040011;28;86982;-63
2023/09/26 01:21:03;;;;;;;;;;;21.20;61.10;;;;;;5042767;28;87495;-61
2023/09/26 01:23:29;;;;;;;;;;;21.20;61.10;;;;;;5042271;27;88027;-64
2023/09/26 01:25:55;;;;;;;;;;;21.20;61.10;;;;;;5043221;27;86483;-62
2023/09/26 01:28:21;;;;;;;;;;;21.20;61.70;;;;;;5042458;27;87097;-62
2023/09/26 01:30:46;;;;;;;;;;;21.20;61.00;;;;;;5045215;28;88240;-62
2023/09/26 01:33:16;;;;;;;;;;;21.20;60.90;;;;;;5041410;27;87976;-63
2023/09/26 01:35:41;;;;;;;;;;;21.20;60.90;;;;;;5042071;27;88482;-62
2023/09/26 01:38:07;;;;;;;;;;;21.20;60.90;;;;;;5042745;28;87121;-61
2023/09/26 01:40:32;;;;;;;;;;;21.20;60.90;;;;;;5042596;28;87843;-62
2023/09/26 01:42:58;;;;;;;;;;;21.10;60.80;;;;;;5042164;28;88372;-63
2023/09/26 01:45:24;;;;;;;;;;;21.20;60.80;;;;;;5042182;27;87160;-62
2023/09/26 01:47:50;;;;;;;;;;;21.20;60.80;;;;;;5041890;28;87575;-63
2023/09/26 01:50:16;;;;;;;;;;;21.10;60.70;;;;;;5042579;27;86684;-62
2023/09/26 01:52:42;;;;;;;;;;;21.10;60.70;;;;;;5045340;28;87091;-63
2023/09/26 01:55:17;;;;;;;;;;;21.10;60.20;;;;;;5041981;28;87310;-62
2023/09/26 01:57:43;;;;;;;;;;;21.10;60.70;;;;;;5041792;28;88157;-59
2023/09/26 02:00:12;;;;;;;;;;;21.10;60.70;;;;;;5042147;28;88739;-63
2023/09/26 02:02:38;;;;;;;;;;;21.10;60.70;;;;;;5040845;27;88510;-62
2023/09/26 02:05:04;;;;;;;;;;;21.10;60.70;;;;;;5042293;28;87088;-62
2023/09/26 02:07:29;;;;;;;;;;;21.10;60.60;;;;;;5042281;28;87095;-62
2023/09/26 02:09:55;;;;;;;;;;;21.00;60.50;;;;;;5041594;28;88408;-62
2023/09/26 02:12:20;;;;;;;;;;;21.00;60.50;;;;;;5042054;28;87172;-61
2023/09/26 02:14:46;;;;;;;;;;;21.00;60.50;;;;;;5044881;27;87662;-63
2023/09/26 02:17:12;;;;;;;;;;;21.00;60.50;;;;;;5041543;28;87154;-62
2023/09/26 02:19:39;;;;;;;;;;;21.00;60.50;;;;;;5041994;28;87210;-62
2023/09/26 02:22:04;;;;;;;;;;;21.00;60.10;;;;;;5040951;27;90057;-63
2023/09/26 02:24:31;;;;;;;;;;;21.00;60.00;;;;;;5042044;27;87221;-62
2023/09/26 02:26:57;;;;;;;;;;;21.00;60.00;;;;;;5041995;27;87924;-62
2023/09/26 02:29:23;;;;;;;;;;;21.00;60.00;;;;;;5037141;28;88268;-63
2023/09/26 02:31:48;;;;;;;;;;;21.00;59.90;;;;;;5041052;28;87234;-63
2023/09/26 02:34:14;;;;;;;;;;;20.90;59.80;;;;;;5042068;28;87585;-62
2023/09/26 02:36:40;;;;;;;;;;;20.90;59.70;;;;;;5044519;28;89074;-63
2023/09/26 02:39:05;;;;;;;;;;;20.90;59.70;;;;;;5042418;27;88096;-62
2023/09/26 02:41:31;;;;;;;;;;;20.90;59.60;;;;;;5041500;27;88515;-62
2023/09/26 02:43:58;;;;;;;;;;;20.90;59.70;;;;;;5041937;28;87280;-63
2023/09/26 02:46:24;;;;;;;;;;;20.90;59.70;;;;;;5038104;28;88480;-62
2023/09/26 02:48:49;;;;;;;;;;;20.90;59.60;;;;;;5040821;27;88631;-62
2023/09/26 02:51:15;;;;;;;;;;;20.90;59.60;;;;;;5041843;28;87668;-63
2023/09/26 02:53:40;;;;;;;;;;;20.80;59.50;;;;;;5041522;27;87531;-62
2023/09/26 02:56:10;;;;;;;;;;;20.80;59.40;;;;;;5041370;28;88802;-62
2023/09/26 02:58:35;;;;;;;;;;;20.80;59.20;;;;;;5044519;28;87199;-62
2023/09/26 03:01:01;;;;;;;;;;;20.80;59.10;;;;;;5040115;28;88273;-62
2023/09/26 03:03:26;;;;;;;;;;;20.80;59.00;;;;;;5041529;28;86246;-62
2023/09/26 03:05:53;;;;;;;;;;;20.80;58.80;;;;;;5041691;27;86978;-63
2023/09/26 03:08:19;;;;;;;;;;;20.80;58.70;;;;;;5043494;27;88270;-63
2023/09/26 03:10:44;;;;;;;;;;;20.70;58.50;;;;;;5044116;28;87936;-63
2023/09/26 03:13:10;;;;;;;;;;;20.70;58.10;;;;;;5044880;27;89204;-61
2023/09/26 03:15:35;;;;;;;;;;;20.80;57.90;;;;;;5043885;28;89048;-62
2023/09/26 03:18:01;;;;;;;;;;;20.70;57.70;;;;;;5044229;28;87219;-62
2023/09/26 03:20:27;;;;;;;;;;;20.70;57.30;;;;;;5047448;27;87577;-63
2023/09/26 03:22:52;;;;;;;;;;;20.70;56.80;;;;;;5044783;27;87119;-62
2023/09/26 03:25:18;;;;;;;;;;;20.70;56.80;;;;;;5044700;28;87434;-62
2023/09/26 03:27:46;;;;;;;;;;;20.70;56.60;;;;;;5045095;28;87496;-63
2023/09/26 03:30:14;;;;;;;;;;;20.60;55.50;;;;;;5044335;28;87084;-62
2023/09/26 03:32:40;;;;;;;;;;;20.60;56.20;;;;;;5043715;28;87733;-62
2023/09/26 03:35:06;;;;;;;;;;;20.60;55.70;;;;;;5043477;27;89250;-62
2023/09/26 03:37:32;;;;;;;;;;;20.60;55.70;;;;;;5044711;27;87151;-62
2023/09/26 03:39:57;;;;;;;;;;;20.60;55.00;;;;;;5047122;28;87205;-62
2023/09/26 03:42:23;;;;;;;;;;;20.60;55.30;;;;;;5044409;28;87109;-61
2023/09/26 03:44:49;;;;;;;;;;;20.60;55.30;;;;;;5044447;27;87048;-63
2023/09/26 03:47:14;;;;;;;;;;;20.60;55.00;;;;;;5043538;27;87326;-63
2023/09/26 03:49:40;;;;;;;;;;;20.50;54.60;;;;;;5044006;27;87307;-63
2023/09/26 03:52:05;;;;;;;;;;;20.60;54.60;;;;;;5044683;28;88182;-62
2023/09/26 03:54:31;;;;;;;;;;;20.50;54.50;;;;;;5044019;28;88202;-61
2023/09/26 03:56:56;;;;;;;;;;;20.50;54.40;;;;;;5044280;28;87112;-62
2023/09/26 03:59:22;;;;;;;;;;;20.50;54.30;;;;;;5043630;28;88127;-61
2023/09/26 04:01:48;;;;;;;;;;;20.50;54.20;;;;;;5045734;27;88170;-62
2023/09/26 04:04:13;;;;;;;;;;;20.50;54.20;;;;;;5043527;28;90062;-63
2023/09/26 04:06:39;;;;;;;;;;;20.50;53.80;;;;;;5043730;28;87788;-62
2023/09/26 04:09:04;;;;;;;;;;;20.50;53.80;;;;;;5039910;28;87143;-61
2023/09/26 04:11:30;;;;;;;;;;;20.40;53.90;;;;;;5043797;28;88062;-62
2023/09/26 04:13:56;;;;;;;;;;;20.40;53.80;;;;;;5043455;28;88328;-62
2023/09/26 04:16:21;;;;;;;;;;;20.40;53.60;;;;;;5043891;27;86497;-62
2023/09/26 04:18:47;;;;;;;;;;;20.40;53.40;;;;;;5042003;27;87060;-62
2023/09/26 04:21:12;;;;;;;;;;;20.40;53.20;;;;;;5041353;27;88153;-62
2023/09/26 04:23:38;;;;;;;;;;;20.40;53.20;;;;;;5047661;27;88971;-62
2023/09/26 04:26:14;;;;;;;;;;;20.40;53.30;;;;;;5043329;28;88261;-62
2023/09/26 04:28:40;;;;;;;;;;;20.40;53.20;;;;;;5043000;27;87513;-62
2023/09/26 04:31:10;;;;;;;;;;;20.40;53.10;;;;;;5045742;27;87603;-61
2023/09/26 04:33:35;;;;;;;;;;;20.40;53.10;;;;;;5040775;27;88269;-62
2023/09/26 04:36:01;;;;;;;;;;;20.40;53.50;;;;;;5043527;28;87150;-62
2023/09/26 04:38:26;;;;;;;;;;;20.30;53.20;;;;;;5042886;27;87751;-61
2023/09/26 04:40:52;;;;;;;;;;;20.30;53.20;;;;;;5043387;27;87603;-62
2023/09/26 04:43:18;;;;;;;;;;;20.30;53.30;;;;;;5040689;27;87156;-64
2023/09/26 04:45:43;;;;;;;;;;;20.30;53.30;;;;;;5045820;28;88397;-63
2023/09/26 04:48:09;;;;;;;;;;;20.30;53.40;;;;;;5041095;27;88130;-63
2023/09/26 04:50:34;;;;;;;;;;;20.30;53.40;;;;;;5039738;27;91433;-63
2023/09/26 04:53:00;;;;;;;;;;;20.30;53.50;;;;;;5041074;27;88346;-62
2023/09/26 04:55:26;;;;;;;;;;;20.30;53.30;;;;;;5043301;27;87165;-63
2023/09/26 04:57:53;;;;;;;;;;;20.30;53.20;;;;;;5041877;27;87131;-62
2023/09/26 05:00:19;;;;;;;;;;;20.30;53.20;;;;;;5040641;28;88230;-62
2023/09/26 05:02:45;;;;;;;;;;;20.30;53.30;;;;;;5039647;27;87175;-62
2023/09/26 05:05:11;;;;;;;;;;;20.30;53.40;;;;;;5043099;27;87804;-63
2023/09/26 05:07:36;;;;;;;;;;;20.30;53.50;;;;;;5044031;27;87364;-61
2023/09/26 05:10:03;;;;;;;;;;;20.30;53.50;;;;;;5041008;27;87472;-63
2023/09/26 05:12:29;;;;;;;;;;;20.30;53.50;;;;;;5040518;28;89569;-62
2023/09/26 05:14:55;;;;;;;;;;;20.30;53.20;;;;;;5042684;27;87091;-61
2023/09/26 05:17:24;;;;;;;;;;;20.30;53.50;;;;;;5041769;27;87562;-63
2023/09/26 05:19:50;;;;;;;;;;;20.30;53.40;;;;;;5037187;27;88211;-65
2023/09/26 05:22:17;;;;;;;;;;;20.30;53.40;;;;;;5042453;28;87158;-63
2023/09/26 05:24:42;;;;;;;;;;;20.30;53.40;;;;;;5042546;27;87541;-62
2023/09/26 05:27:08;;;;;;;;;;;20.30;53.60;;;;;;5040448;27;88178;-64
2023/09/26 05:29:35;;;;;;;;;;;20.30;53.50;;;;;;5040907;27;86531;-63
2023/09/26 05:32:01;;;;;;;;;;;20.30;53.60;;;;;;5042061;28;88230;-63
2023/09/26 05:34:26;;;;;;;;;;;20.30;52.90;;;;;;5041659;27;87117;-63
2023/09/26 05:36:52;;;;;;;;;;;20.30;53.30;;;;;;5043708;27;88129;-62
2023/09/26 05:39:18;;;;;;;;;;;20.30;53.40;;;;;;5040692;27;88373;-62
2023/09/26 05:41:43;;;;;;;;;;;20.30;53.50;;;;;;5042562;28;87098;-63
2023/09/26 05:44:11;;;;;;;;;;;20.30;53.50;;;;;;5041281;27;87354;-63
2023/09/26 05:46:36;;;;;;;;;;;20.20;53.30;;;;;;5040202;27;88236;-60
2023/09/26 05:49:02;;;;;;;;;;;20.30;53.30;;;;;;5038642;28;87951;-63
2023/09/26 05:51:27;;;;;;;;;;;20.20;53.20;;;;;;5042137;28;87743;-64
2023/09/26 05:53:53;;;;;;;;;;;20.20;53.30;;;;;;5041940;27;86478;-62
2023/09/26 05:56:18;;;;;;;;;;;20.30;53.20;;;;;;5040421;27;87234;-62
2023/09/26 05:58:46;;;;;;;;;;;20.30;53.10;;;;;;5037931;27;90560;-63
2023/09/26 06:01:12;;;;;;;;;;;20.30;53.00;;;;;;5041135;27;88019;-61
2023/09/26 06:03:37;;;;;;;;;;;20.20;52.90;;;;;;5040225;27;88987;-62
2023/09/26 06:06:03;;;;;;;;;;;20.30;53.00;;;;;;5039844;27;88115;-62
2023/09/26 06:08:29;;;;;;;;;;;20.30;53.10;;;;;;5041184;27;87147;-63
2023/09/26 06:10:55;;;;;;;;;;;20.30;52.70;;;;;;5044969;28;87725;-63
2023/09/26 06:13:20;;;;;;;;;;;20.20;52.60;;;;;;5036277;27;87429;-62
2023/09/26 06:15:46;;;;;;;;;;;20.20;52.70;;;;;;5039796;27;87549;-63
2023/09/26 06:18:11;;;;;;;;;;;20.30;52.60;;;;;;5040546;27;87504;-63
2023/09/26 06:20:38;;;;;;;;;;;20.30;52.60;;;;;;5041767;28;87145;-62
2023/09/26 06:23:04;;;;;;;;;;;20.30;52.70;;;;;;5039386;27;88596;-62
2023/09/26 06:25:29;;;;;;;;;;;20.30;52.70;;;;;;5039100;27;89554;-62
2023/09/26 06:27:55;;;;;;;;;;;20.20;52.50;;;;;;5041869;28;87182;-64
2023/09/26 06:30:21;;;;;;;;;;;20.20;52.40;;;;;;5037581;28;87536;-62
2023/09/26 06:32:46;;;;;;;;;;;20.20;52.40;;;;;;5042608;27;88251;-61
2023/09/26 06:35:12;;;;;;;;;;;20.30;52.40;;;;;;5041879;27;87191;-63
2023/09/26 06:37:37;;;;;;;;;;;20.30;52.30;;;;;;5041447;27;88143;-62
2023/09/26 06:40:04;;;;;;;;;;;20.30;52.30;;;;;;5040405;27;87154;-62
2023/09/26 06:42:30;;;;;;;;;;;20.20;52.30;;;;;;5041187;27;88683;-62
2023/09/26 06:44:56;;;;;;;;;;;20.30;52.40;;;;;;5042868;27;88419;-62
2023/09/26 06:47:21;;;;;;;;;;;20.30;52.40;;;;;;5036943;28;87757;-63
2023/09/26 06:49:47;;;;;;;;;;;20.30;52.40;;;;;;5042755;27;88078;-62
2023/09/26 06:52:13;;;;;;;;;;;20.20;52.40;;;;;;5042667;27;88857;-62
2023/09/26 06:54:38;;;;;;;;;;;20.20;52.40;;;;;;5043994;27;87242;-62
2023/09/26 06:57:04;;;;;;;;;;;20.30;52.50;;;;;;5044423;28;87462;-61
2023/09/26 06:59:29;;;;;;;;;;;20.20;52.60;;;;;;5043503;27;88971;-63
2023/09/26 07:01:55;;;;;;;;;;;20.30;52.60;;;;;;5040468;27;88286;-62
2023/09/26 07:04:20;;;;;;;;;;;20.20;52.70;;;;;;5043886;28;87945;-61
2023/09/26 07:06:46;;;;;;;;;;;20.30;52.80;;;;;;5044983;27;86396;-62
2023/09/26 07:09:13;;;;;;;;;;;20.30;52.90;;;;;;5043455;27;87177;-62
2023/09/26 07:11:40;;;;;;;;;;;20.30;53.10;;;;;;5041166;27;90513;-61
2023/09/26 07:14:07;;;;;;;;;;;20.30;53.00;;;;;;5043188;28;88638;-63
2023/09/26 07:16:33;;;;;;;;;;;20.30;53.20;;;;;;5046253;27;88193;-62
2023/09/26 07:19:02;;;;;;;;;;;20.30;53.30;;;;;;5042122;27;87177;-62
2023/09/26 07:21:27;;;;;;;;;;;20.20;53.30;;;;;;5040219;27;87111;-62
2023/09/26 07:23:53;;;;;;;;;;;20.30;53.40;;;;;;5044101;28;88359;-62
2023/09/26 07:26:20;;;;;;;;;;;20.20;53.40;;;;;;5043319;28;87110;-62
2023/09/26 07:28:47;;;;;;;;;;;20.30;53.50;;;;;;5041624;27;87486;-63
2023/09/26 07:31:13;;;;;;;;;;;20.30;53.60;;;;;;5042133;28;87686;-63
2023/09/26 07:33:39;;;;;;;;;;;20.30;53.60;;;;;;5043829;28;87186;-62
2023/09/26 07:36:04;;;;;;;;;;;20.30;53.80;;;;;;5047654;27;87820;-62
2023/09/26 07:38:31;;;;;;;;;;;20.30;53.80;;;;;;5041827;27;88213;-62
2023/09/26 07:40:57;;;;;;;;;;;20.30;54.00;;;;;;5043862;28;88948;-63
2023/09/26 07:43:29;;;;;;;;;;;20.30;54.10;;;;;;5043239;28;88201;-63
2023/09/26 07:45:57;;;;;;;;;;;20.30;54.20;;;;;;5041760;27;87194;-62
2023/09/26 07:48:23;;;;;;;;;;;20.30;54.30;;;;;;5038595;27;87654;-62
2023/09/26 07:50:48;;;;;;;;;;;20.30;54.40;;;;;;5043086;27;88444;-62
2023/09/26 07:53:15;;;;;;;;;;;20.30;54.50;;;;;;5042991;27;87110;-62
2023/09/26 07:55:40;;;;;;;;;;;20.30;54.50;;;;;;5041806;27;86727;-62
2023/09/26 07:58:06;;;;;;;;;;;20.30;54.50;;;;;;5044703;27;88087;-63
2023/09/26 08:00:31;;;;;;;;;;;20.20;54.40;;;;;;5042295;28;90765;-62
2023/09/26 08:02:57;;;;;;;;;;;20.30;54.50;;;;;;5037589;27;89413;-62
2023/09/26 08:05:22;;;;;;;;;;;20.30;54.50;;;;;;5041012;27;88719;-62
2023/09/26 08:07:48;;;;;;;;;;;20.30;54.60;;;;;;5042382;27;87855;-62
2023/09/26 08:10:14;;;;;;;;;;;20.30;54.70;;;;;;5043519;28;87930;-62
2023/09/26 08:12:41;;;;;;;;;;;20.30;54.70;;;;;;5042110;27;87501;-62
2023/09/26 08:15:08;;;;;;;;;;;20.30;54.70;;;;;;5041049;27;89795;-62
2023/09/26 08:17:34;;;;;;;;;;;20.30;54.70;;;;;;5036874;27;89749;-62
2023/09/26 08:20:00;;;;;;;;;;;20.30;54.80;;;;;;5046782;27;86746;-62
2023/09/26 08:22:25;;;;;;;;;;;20.30;54.80;;;;;;5045003;27;87411;-62
2023/09/26 08:24:51;;;;;;;;;;;20.30;54.90;;;;;;5042273;27;88147;-62
2023/09/26 08:27:17;;;;;;;;;;;20.30;54.80;;;;;;5042152;28;87949;-62
2023/09/26 08:29:42;;;;;;;;;;;20.30;54.90;;;;;;5043017;27;88151;-62
2023/09/26 08:32:09;;;;;;;;;;;20.30;54.90;;;;;;5042705;27;87736;-62
2023/09/26 08:34:34;;;;;;;;;;;20.30;54.90;;;;;;5038441;27;88543;-62
2023/09/26 08:37:00;;;;;;;;;;;20.30;54.90;;;;;;5042327;28;87855;-62
2023/09/26 08:39:26;;;;;;;;;;;20.30;54.90;;;;;;5042871;28;87154;-63
2023/09/26 08:41:52;;;;;;;;;;;20.30;54.90;;;;;;5044093;27;87510;-63
2023/09/26 08:44:17;;;;;;;;;;;20.30;54.90;;;;;;5038490;27;87009;-61
2023/09/26 08:46:44;;;;;;;;;;;20.30;54.90;;;;;;5043226;27;87292;-62
2023/09/26 08:49:10;;;;;;;;;;;20.30;55.00;;;;;;5044758;27;88588;-62
2023/09/26 08:51:36;;;;;;;;;;;20.30;55.00;;;;;;5040153;27;88518;-62
2023/09/26 08:54:01;;;;;;;;;;;20.30;55.00;;;;;;5040636;27;88285;-62
2023/09/26 08:56:27;;;;;;;;;;;20.30;55.00;;;;;;5042292;28;87807;-62
2023/09/26 08:58:54;;;;;;;;;;;20.30;55.00;;;;;;5042929;27;87241;-62
2023/09/26 09:01:20;;;;;;;;;;;20.30;54.90;;;;;;5043144;27;89955;-62
2023/09/26 09:03:46;;;;;;;;;;;20.40;55.00;;;;;;5040917;27;87805;-63
2023/09/26 09:06:12;;;;;;;;;;;20.40;54.90;;;;;;5041515;27;87628;-63
2023/09/26 09:08:38;;;;;;;;;;;20.40;54.90;;;;;;5038165;27;87944;-62
2023/09/26 09:11:04;;;;;;;;;;;20.30;54.90;;;;;;5040511;27;88390;-62
2023/09/26 09:13:30;;;;;;;;;;;20.40;54.90;;;;;;5039890;28;87453;-62
2023/09/26 09:16:05;;;;;;;;;;;20.40;55.10;;;;;;5041822;27;89364;-62
2023/09/26 09:18:31;;;;;;;;;;;20.40;55.00;;;;;;5041055;27;87260;-63
2023/09/26 09:20:56;;;;;;;;;;;20.40;55.10;;;;;;5039537;27;87550;-62
2023/09/26 09:23:22;;;;;;;;;;;20.40;55.10;;;;;;5042340;28;88362;-62
2023/09/26 09:25:50;;;;;;;;;;;20.40;55.20;;;;;;5044893;28;87551;-62
2023/09/26 09:28:18;;;;;;;;;;;20.40;55.20;;;;;;5040196;27;88439;-62
2023/09/26 09:30:44;;;;;;;;;;;20.40;55.10;;;;;;5040637;27;87145;-64
2023/09/26 09:33:10;;;;;;;;;;;20.40;55.20;;;;;;5042880;28;86936;-62
2023/09/26 09:35:38;;;;;;;;;;;20.40;55.10;;;;;;5040819;28;88258;-62
2023/09/26 09:38:04;;;;;;;;;;;20.40;55.20;;;;;;5040418;27;87740;-62
2023/09/26 09:40:30;;;;;;;;;;;20.50;55.20;;;;;;5038565;27;88767;-62
2023/09/26 09:42:56;;;;;;;;;;;20.40;55.20;;;;;;5041756;28;88699;-62
2023/09/26 09:45:22;;;;;;;;;;;20.40;55.30;;;;;;5044120;27;87679;-62
2023/09/26 09:47:48;;;;;;;;;;;20.40;55.20;;;;;;5043282;27;87980;-62
2023/09/26 09:50:15;;;;;;;;;;;20.50;55.20;;;;;;5040342;27;87364;-61
2023/09/26 09:52:43;;;;;;;;;;;20.40;55.20;;;;;;5042209;28;88171;-62
2023/09/26 09:55:13;;;;;;;;;;;20.50;55.30;;;;;;5042460;27;87160;-62
2023/09/26 09:57:41;;;;;;;;;;;20.40;55.20;;;;;;5040549;27;86417;-62
2023/09/26 10:00:08;;;;;;;;;;;20.50;55.10;;;;;;5037821;28;87886;-63
2023/09/26 10:02:34;;;;;;;;;;;20.50;55.20;;;;;;5040727;27;88624;-61
2023/09/26 10:05:00;;;;;;;;;;;20.50;55.10;;;;;;5039107;27;88280;-62
2023/09/26 10:07:27;;;;;;;;;;;20.50;55.10;;;;;;5042853;27;88659;-62
2023/09/26 10:09:54;;;;;;;;;;;20.50;55.20;;;;;;5040232;28;87136;-61
2023/09/26 10:12:20;;;;;;;;;;;20.50;55.10;;;;;;5040742;27;87634;-62
2023/09/26 10:14:45;;;;;;;;;;;20.60;55.20;;;;;;5039163;27;88298;-61
2023/09/26 10:17:11;;;;;;;;;;;20.60;55.20;;;;;;5039831;27;88058;-61
2023/09/26 10:19:37;;;;;;;;;;;20.60;55.10;;;;;;5045720;28;87961;-61
2023/09/26 10:22:20;;;;;;;;;;;20.60;55.20;;;;;;5043926;27;87506;-61
2023/09/26 10:24:47;;;;;;;;;;;20.60;55.20;;;;;;5045478;27;87140;-62
2023/09/26 10:27:12;;;;;;;;;;;20.60;55.20;;;;;;5045516;27;87201;-62
2023/09/26 10:29:38;;;;;;;;;;;20.60;55.10;;;;;;5046906;28;89257;-61
2023/09/26 10:32:07;;;;;;;;;;;20.60;55.30;;;;;;5045702;27;88814;-62
2023/09/26 10:34:33;;;;;;;;;;;20.70;55.10;;;;;;5043822;27;88606;-61
2023/09/26 10:36:59;;;;;;;;;;;20.60;55.30;;;;;;5040996;28;87474;-62
2023/09/26 10:39:34;;;;;;;;;;;20.70;55.00;;;;;;5044371;28;87649;-63
2023/09/26 10:42:20;;;;;;;;;;;20.70;55.10;;;;;;5042512;27;91195;-62
2023/09/26 10:44:49;;;;;;;;;;;20.70;55.20;;;;;;5043582;27;87126;-62
2023/09/26 10:47:19;;;;;;;;;;;20.70;55.00;;;;;;5045214;27;87852;-61
2023/09/26 10:49:44;;;;;;;;;;;20.70;55.30;;;;;;5038727;27;88933;-62
2023/09/26 10:52:11;;;;;;;;;;;20.70;55.00;;;;;;5046752;27;87728;-62
2023/09/26 10:54:37;;;;;;;;;;;20.70;54.70;;;;;;5041544;28;89790;-62
2023/09/26 10:57:03;;;;;;;;;;;20.70;54.90;;;;;;5045035;27;87351;-61
2023/09/26 10:59:29;;;;;;;;;;;20.70;54.80;;;;;;5043254;27;88262;-61
2023/09/26 11:01:58;;;;;;;;;;;20.70;54.80;;;;;;5042209;27;88132;-62
2023/09/26 11:04:28;;;;;;;;;;;20.80;55.00;;;;;;5042676;28;87282;-61
2023/09/26 11:06:55;;;;;;;;;;;20.80;54.80;;;;;;5044381;28;87580;-61
2023/09/26 11:09:20;;;;;;;;;;;20.80;54.90;;;;;;5042785;27;88520;-62
2023/09/26 11:11:46;;;;;;;;;;;20.80;54.80;;;;;;5040537;27;86553;-61
2023/09/26 11:14:11;;;;;;;;;;;20.80;54.90;;;;;;5046217;28;87670;-61
2023/09/26 11:16:40;;;;;;;;;;;20.80;54.90;;;;;;5043898;27;86961;-61
2023/09/26 11:19:06;;;;;;;;;;;20.80;55.00;;;;;;5039439;27;88218;-61
2023/09/26 11:21:31;;;;;;;;;;;20.90;54.90;;;;;;5042455;27;88539;-61
2023/09/26 11:23:57;;;;;;;;;;;20.90;54.90;;;;;;5044201;28;87049;-60
2023/09/26 11:26:22;;;;;;;;;;;20.90;54.80;;;;;;5043436;27;89056;-61
2023/09/26 11:28:49;;;;;;;;;;;20.90;54.90;;;;;;5040899;27;87521;-62
2023/09/26 11:31:15;;;;;;;;;;;20.90;55.00;;;;;;5043507;28;87253;-62
2023/09/26 11:33:40;;;;;;;;;;;20.90;55.00;;;;;;5040555;28;87152;-61
2023/09/26 11:36:06;;;;;;;;;;;21.00;55.20;;;;;;5045989;27;87614;-62
2023/09/26 11:38:32;;;;;;;;;;;21.00;55.20;;;;;;5041582;27;87264;-61
2023/09/26 11:40:58;;;;;;;;;;;21.00;55.10;;;;;;5043038;28;88787;-62
2023/09/26 11:43:23;;;;;;;;;;;21.00;55.10;;;;;;5043594;27;88037;-61
2023/09/26 11:45:58;;;;;;;;;;;21.00;55.10;;;;;;5042056;27;88473;-61
2023/09/26 11:48:24;;;;;;;;;;;21.00;55.10;;;;;;5040978;27;88282;-61
2023/09/26 11:50:50;;;;;;;;;;;21.00;55.20;;;;;;5044396;28;87066;-62
2023/09/26 11:53:15;;;;;;;;;;;21.00;55.20;;;;;;5041278;28;90665;-61
2023/09/26 11:55:42;;;;;;;;;;;21.10;55.20;;;;;;5047989;27;88425;-63
2023/09/26 11:58:08;;;;;;;;;;;21.10;55.20;;;;;;5041854;27;88166;-61
2023/09/26 12:00:33;;;;;;;;;;;21.10;55.10;;;;;;5044068;28;87864;-62
2023/09/26 12:02:59;;;;;;;;;;;21.10;55.20;;;;;;5042272;27;87080;-61
2023/09/26 12:05:24;;;;;;;;;;;21.10;55.20;;;;;;5041800;27;88113;-63
2023/09/26 12:07:50;;;;;;;;;;;21.10;55.20;;;;;;5041197;27;88068;-62
2023/09/26 12:10:16;;;;;;;;;;;21.10;55.30;;;;;;5044064;27;87297;-62
2023/09/26 12:12:41;;;;;;;;;;;21.10;55.40;;;;;;5043995;27;88030;-62
2023/09/26 12:15:20;;;;;;;;;;;21.10;55.40;;;;;;5041609;27;88144;-63
2023/09/26 12:17:46;;;;;;;;;;;21.10;55.30;;;;;;5043795;28;87117;-61
2023/09/26 12:20:13;;;;;;;;;;;21.20;55.40;;;;;;5043423;28;88358;-62
2023/09/26 12:22:39;;;;;;;;;;;21.20;55.30;;;;;;5042594;27;88249;-62
2023/09/26 12:25:05;;;;;;;;;;;21.20;55.40;;;;;;5042226;27;87855;-62
2023/09/26 12:27:30;;;;;;;;;;;21.20;55.40;;;;;;5043286;27;87883;-62
2023/09/26 12:29:56;;;;;;;;;;;21.20;55.30;;;;;;5042599;28;87264;-62
2023/09/26 12:32:21;;;;;;;;;;;21.30;55.50;;;;;;5041464;27;89884;-62
2023/09/26 12:34:47;;;;;;;;;;;21.30;55.40;;;;;;5038081;27;88340;-62
2023/09/26 12:37:12;;;;;;;;;;;21.20;55.40;;;;;;5043037;28;87178;-63
2023/09/26 12:39:38;;;;;;;;;;;21.30;55.30;;;;;;5043579;27;87917;-62
2023/09/26 12:42:03;;;;;;;;;;;21.30;55.20;;;;;;5041144;27;87705;-62
2023/09/26 12:44:29;;;;;;;;;;;21.30;55.20;;;;;;5042162;27;87724;-61
2023/09/26 12:46:54;;;;;;;;;;;21.30;55.30;;;;;;5039251;28;88064;-61
2023/09/26 12:49:20;;;;;;;;;;;21.30;55.20;;;;;;5041837;27;86236;-61
2023/09/26 12:51:46;;;;;;;;;;;21.30;55.30;;;;;;5046556;27;87257;-62
2023/09/26 12:54:11;;;;;;;;;;;21.40;55.30;;;;;;5040230;28;89865;-62
2023/09/26 12:56:37;;;;;;;;;;;21.40;55.30;;;;;;5042626;28;88109;-62
2023/09/26 12:59:02;;;;;;;;;;;21.30;55.20;;;;;;5041052;27;88995;-61
2023/09/26 13:01:28;;;;;;;;;;;21.40;56.00;;;;;;5044267;27;88608;-62
2023/09/26 13:03:54;;;;;;;;;;;21.40;55.30;;;;;;5042860;28;87264;-61
2023/09/26 13:06:20;;;;;;;;;;;21.40;55.40;;;;;;5042666;27;88592;-62
2023/09/26 13:08:46;;;;;;;;;;;21.40;55.40;;;;;;5044178;27;87268;-61
2023/09/26 13:11:11;;;;;;;;;;;21.40;55.30;;;;;;5041519;27;88915;-62
2023/09/26 13:13:37;;;;;;;;;;;21.50;55.40;;;;;;5042431;28;88597;-62
2023/09/26 13:16:02;;;;;;;;;;;21.50;55.40;;;;;;5042673;28;87169;-62
2023/09/26 13:18:28;;;;;;;;;;;21.50;55.40;;;;;;5041660;27;87896;-61
2023/09/26 13:20:53;;;;;;;;;;;21.50;55.40;;;;;;5041538;27;89175;-61
2023/09/26 13:23:19;;;;;;;;;;;21.50;55.30;;;;;;5045039;28;87896;-62
2023/09/26 13:25:44;;;;;;;;;;;21.50;55.50;;;;;;5042526;28;88352;-61
2023/09/26 13:28:11;;;;;;;;;;;21.50;55.40;;;;;;5040526;27;87239;-62
2023/09/26 13:30:36;;;;;;;;;;;21.60;55.50;;;;;;5040334;27;88429;-61
2023/09/26 13:33:02;;;;;;;;;;;21.60;55.50;;;;;;5042308;28;87793;-63
2023/09/26 13:35:29;;;;;;;;;;;21.60;55.60;;;;;;5041776;27;87226;-61
2023/09/26 13:37:54;;;;;;;;;;;21.60;55.60;;;;;;5040545;27;90133;-61
2023/09/26 13:40:20;;;;;;;;;;;21.60;55.60;;;;;;5037493;27;88321;-61
2023/09/26 13:42:45;;;;;;;;;;;21.60;55.50;;;;;;5042522;27;87142;-63
2023/09/26 13:45:12;;;;;;;;;;;21.60;55.60;;;;;;5044043;27;88436;-62
2023/09/26 13:47:37;;;;;;;;;;;21.70;55.70;;;;;;5040170;27;87154;-63
2023/09/26 13:50:03;;;;;;;;;;;21.60;55.60;;;;;;5038704;27;87637;-62
2023/09/26 13:52:30;;;;;;;;;;;21.60;55.40;;;;;;5041071;28;88591;-62
2023/09/26 13:54:56;;;;;;;;;;;21.70;55.50;;;;;;5041384;27;88316;-61
2023/09/26 13:57:22;;;;;;;;;;;21.70;55.60;;;;;;5040240;27;87734;-63
2023/09/26 13:59:49;;;;;;;;;;;21.70;55.60;;;;;;5038840;27;88986;-61
2023/09/26 14:02:15;;;;;;;;;;;21.70;55.60;;;;;;5041751;27;88993;-63
2023/09/26 14:04:42;;;;;;;;;;;21.70;55.60;;;;;;5044230;27;87465;-62
2023/09/26 14:07:09;;;;;;;;;;;21.70;56.20;;;;;;5042525;27;87168;-63
2023/09/26 14:09:35;;;;;;;;;;;21.70;55.60;;;;;;5039501;27;88427;-62